Time;durP1;ratioP1;P1;durP2;ratioP2;P2;SDS_P1;SDS_P2;PMS_P1;PMS_P2;Temp;Humidity;BMP_temperature;BMP_pressure;BME280_temperature;BME280_humidity;BME280_pressure;Samples;Min_cycle;Max_cycle;Signal;HPM_P1;HPM_P2
2022/04/17 00:01:57;;;;;;;9.35;8.50;;;;;;;3.33;66.92;95071.91;1707686;84;21019;-49
2022/04/17 00:04:23;;;;;;;8.58;7.78;;;;;;;3.32;66.97;95070.35;1707589;84;21007;-49
2022/04/17 00:06:50;;;;;;;11.43;8.23;;;;;;;3.33;66.91;95065.67;1707843;84;21022;-50
2022/04/17 00:09:17;;;;;;;9.50;8.60;;;;;;;3.35;67.02;95064.70;1707859;84;20979;-50
2022/04/17 00:11:45;;;;;;;9.78;8.78;;;;;;;3.39;66.79;95067.60;1707342;84;21129;-50
2022/04/17 00:14:12;;;;;;;9.13;8.08;;;;;;;3.43;66.77;95063.52;1707297;84;21003;-50
2022/04/17 00:16:42;;;;;;;8.78;8.08;;;;;;;3.45;67.06;95066.02;1707511;84;21431;-50
2022/04/17 00:19:10;;;;;;;8.65;7.95;;;;;;;3.39;66.47;95054.01;1707381;84;21075;-50
2022/04/17 00:21:38;;;;;;;8.98;8.13;;;;;;;3.38;66.66;95054.42;1707616;84;21015;-52
2022/04/17 00:24:06;;;;;;;7.40;6.80;;;;;;;3.41;66.71;95050.91;1707858;84;21003;-49
2022/04/17 00:26:33;;;;;;;7.92;7.17;;;;;;;3.41;66.10;95050.91;1707257;84;21070;-50
2022/04/17 00:29:00;;;;;;;8.40;7.70;;;;;;;3.40;65.68;95057.52;1707277;84;21066;-49
2022/04/17 00:31:27;;;;;;;8.63;7.72;;;;;;;3.37;65.93;95054.98;1707721;84;20987;-50
2022/04/17 00:33:55;;;;;;;10.30;8.60;;;;;;;3.35;66.58;95052.45;1707987;84;21494;-51
2022/04/17 00:36:22;;;;;;;8.75;7.85;;;;;;;3.37;66.71;95051.48;1681146;84;21168;-51
2022/04/17 00:38:49;;;;;;;8.60;7.70;;;;;;;3.40;66.48;95060.23;1707550;84;21074;-50
2022/04/17 00:41:17;;;;;;;10.30;8.50;;;;;;;3.36;66.25;95058.09;1707441;84;20975;-50
2022/04/17 00:43:46;;;;;;;12.68;9.50;;;;;;;3.36;66.34;95056.73;1707863;84;21031;-51
2022/04/17 00:46:16;;;;;;;10.28;8.25;;;;;;;3.36;66.29;95050.72;1708225;84;21074;-50
2022/04/17 00:48:43;;;;;;;11.85;9.00;;;;;;;3.31;66.77;95048.98;1707645;84;21295;-50
2022/04/17 00:51:09;;;;;;;12.82;9.25;;;;;;;3.30;67.00;95048.23;1707518;84;21048;-50
2022/04/17 00:53:37;;;;;;;13.80;9.63;;;;;;;3.28;66.77;95045.09;1707868;84;21453;-51
2022/04/17 00:56:04;;;;;;;12.63;9.98;;;;;;;3.29;66.83;95045.89;1707707;84;21014;-51
2022/04/17 00:58:32;;;;;;;10.10;8.40;;;;;;;3.33;67.26;95036.56;1707797;84;21084;-51
2022/04/17 01:01:00;;;;;;;11.65;8.55;;;;;;;3.37;67.08;95044.68;1707865;84;21161;-50
2022/04/17 01:03:28;;;;;;;10.65;9.00;;;;;;;3.37;66.47;95037.88;1681807;84;20953;-51
2022/04/17 01:05:56;;;;;;;9.08;8.30;;;;;;;3.35;66.53;95036.14;1707691;84;20994;-50
2022/04/17 01:08:23;;;;;;;9.48;8.58;;;;;;;3.38;66.21;95040.83;1681862;84;21080;-51
2022/04/17 01:10:51;;;;;;;9.93;8.65;;;;;;;3.36;65.91;95039.84;1707983;84;21009;-51
2022/04/17 01:13:17;;;;;;;9.68;8.70;;;;;;;3.32;65.69;95036.94;1709483;84;21234;-51
2022/04/17 01:15:45;;;;;;;9.68;8.78;;;;;;;3.29;65.79;95029.58;1709355;84;21001;-49
2022/04/17 01:18:12;;;;;;;9.03;8.18;;;;;;;3.30;65.58;95022.97;1709326;84;21057;-49
2022/04/17 01:20:41;;;;;;;9.70;8.45;;;;;;;3.32;65.56;95021.41;1709410;84;21060;-50
2022/04/17 01:28:40;;;;;;;10.53;8.35;;;;;;;3.36;65.40;95016.73;1709121;84;20984;-50
2022/04/17 01:31:10;;;;;;;11.30;8.73;;;;;;;3.40;65.40;95014.01;1709501;82;20973;-51
2022/04/17 01:33:36;;;;;;;12.65;8.65;;;;;;;3.39;66.04;95013.22;1709442;82;21203;-49
2022/04/17 01:36:04;;;;;;;11.30;8.45;;;;;;;3.34;65.57;95007.41;1709031;84;21086;-52
2022/04/17 01:38:31;;;;;;;10.45;9.10;;;;;;;3.30;64.98;95018.89;1707601;84;21261;-50
2022/04/17 01:40:59;;;;;;;13.85;9.75;;;;;;;3.21;65.10;95001.64;1707538;82;21598;-52
2022/04/17 01:43:27;;;;;;;11.75;9.28;;;;;;;3.14;65.29;95006.32;1708010;84;20967;-51
2022/04/17 01:45:55;;;;;;;12.55;9.28;;;;;;;3.15;65.65;94999.71;1707594;84;21024;-50
2022/04/17 01:48:21;;;;;;;9.95;8.93;;;;;;;3.15;65.06;95002.43;1708162;84;21447;-51
2022/04/17 01:50:49;;;;;;;12.05;9.45;;;;;;;3.10;65.03;95002.27;1707847;84;21047;-50
2022/04/17 01:53:16;;;;;;;10.63;9.25;;;;;;;3.14;64.63;95000.88;1707480;84;21019;-49
2022/04/17 01:55:43;;;;;;;13.22;8.53;;;;;;;3.15;65.40;94999.71;1707886;84;21023;-50
2022/04/17 01:58:11;;;;;;;9.53;7.67;;;;;;;3.19;66.39;94997.75;1707877;84;21059;-51
2022/04/17 02:00:38;;;;;;;10.78;8.53;;;;;;;3.20;65.93;94993.89;1707951;84;22175;-50
2022/04/17 02:03:05;;;;;;;7.50;6.67;;;;;;;3.18;65.22;94996.99;1708409;84;21150;-50
2022/04/17 02:05:33;;;;;;;9.35;8.08;;;;;;;3.19;64.82;94997.18;1707564;84;21107;-52
2022/04/17 02:08:00;;;;;;;8.05;7.25;;;;;;;3.14;64.84;94990.02;1681940;84;21069;-51
2022/04/17 02:10:28;;;;;;;7.58;6.97;;;;;;;3.05;64.27;94980.91;1682258;84;21028;-51
2022/04/17 02:12:56;;;;;;;8.08;7.37;;;;;;;3.02;63.90;94987.74;1707741;84;20979;-50
2022/04/17 02:15:25;;;;;;;8.00;7.05;;;;;;;2.96;64.29;94987.93;1707973;84;21413;-50
2022/04/17 02:17:52;;;;;;;7.78;7.10;;;;;;;2.95;64.48;94987.74;1707501;84;21514;-51
2022/04/17 02:20:19;;;;;;;8.00;7.40;;;;;;;2.90;64.21;94983.48;1708005;84;21546;-50
2022/04/17 02:22:47;;;;;;;8.25;7.53;;;;;;;2.81;63.89;94977.70;1708045;84;20975;-50
2022/04/17 02:25:16;;;;;;;8.75;7.90;;;;;;;2.76;64.48;94976.74;1707848;84;20971;-51
2022/04/17 02:27:44;;;;;;;8.18;7.40;;;;;;;2.77;64.71;94982.37;1707857;84;21193;-51
2022/04/17 02:30:11;;;;;;;9.23;8.23;;;;;;;2.75;64.68;94975.77;1707494;84;21011;-50
2022/04/17 02:32:38;;;;;;;9.55;8.65;;;;;;;2.79;64.73;94973.23;1681972;84;21007;-50
2022/04/17 02:35:06;;;;;;;10.98;8.88;;;;;;;2.81;65.13;94974.98;1707837;84;20979;-49
2022/04/17 02:37:37;;;;;;;9.55;8.75;;;;;;;2.82;65.47;94973.81;1707736;84;21082;-51
2022/04/17 02:40:07;;;;;;;9.75;8.85;;;;;;;2.81;65.55;94971.47;1707734;84;21159;-51
2022/04/17 02:42:35;;;;;;;10.78;8.58;;;;;;;2.78;65.54;94975.77;1707893;84;21446;-50
2022/04/17 02:45:04;;;;;;;13.65;9.50;;;;;;;2.81;65.37;94978.27;1707928;84;21514;-51
2022/04/17 02:47:43;;;;;;;12.07;9.85;;;;;;;2.86;65.21;94966.42;1708111;84;21550;-51
2022/04/17 02:50:12;;;;;;;18.52;11.20;;;;;;;2.90;64.38;94972.61;1684636;84;21042;-50
2022/04/17 02:52:39;;;;;;;14.23;10.88;;;;;;;2.88;64.91;94971.47;1702045;84;21228;-51
2022/04/17 02:55:08;;;;;;;16.50;12.00;;;;;;;2.86;65.36;94969.14;1699106;84;20987;-51
2022/04/17 02:57:37;;;;;;;11.28;10.10;;;;;;;2.86;65.78;94968.38;1699386;84;20971;-50
2022/04/17 03:00:06;;;;;;;11.33;10.23;;;;;;;2.87;65.58;94974.00;1699545;84;21527;-52
2022/04/17 03:05:39;;;;;;;10.85;9.58;;;;;;;2.86;64.96;94977.28;1699210;84;21279;-51
2022/04/17 03:08:11;;;;;;;10.55;9.58;;;;;;;2.84;64.45;94980.22;1700425;84;20963;-52
2022/04/17 03:10:48;;;;;;;11.90;10.75;;;;;;;2.80;64.56;94978.86;1699349;84;21028;-52
2022/04/17 03:13:15;;;;;;;10.88;9.88;;;;;;;2.81;64.83;94974.98;1699140;84;20992;-50
2022/04/17 03:15:42;;;;;;;10.05;9.25;;;;;;;2.81;64.88;94976.91;1699155;84;21941;-50
2022/04/17 03:18:10;;;;;;;10.63;9.33;;;;;;;2.83;64.30;94980.80;1699131;84;21499;-50
2022/04/17 03:20:38;;;;;;;9.15;8.35;;;;;;;2.86;64.40;94975.17;1698953;84;21066;-50
2022/04/17 03:23:05;;;;;;;9.30;8.50;;;;;;;2.85;63.27;94979.81;1699242;84;21032;-50
2022/04/17 03:25:32;;;;;;;10.95;9.95;;;;;;;2.83;63.15;94969.16;1699346;84;21530;-50
2022/04/17 03:28:00;;;;;;;9.40;8.60;;;;;;;2.86;63.41;94977.88;1699282;84;21105;-50
2022/04/17 03:30:28;;;;;;;12.58;11.28;;;;;;;2.88;63.42;94979.63;1720553;83;20998;-50
2022/04/17 03:32:56;;;;;;;9.90;9.03;;;;;;;2.87;63.72;94977.47;1729757;83;20957;-52
2022/04/17 03:35:25;;;;;;;17.50;15.18;;;;;;;2.85;64.13;94974.98;1730228;82;20954;-50
2022/04/17 03:37:57;;;;;;;12.73;11.43;;;;;;;2.81;64.41;94973.62;1704196;82;21490;-53
2022/04/17 03:40:25;;;;;;;11.48;10.45;;;;;;;2.81;64.60;94974.19;1701051;84;20988;-51
2022/04/17 03:42:52;;;;;;;9.63;8.83;;;;;;;2.84;64.52;94978.86;1700706;83;21528;-51
2022/04/17 03:45:19;;;;;;;11.93;10.82;;;;;;;2.93;64.15;94981.93;1700717;84;21020;-50
2022/04/17 03:47:45;;;;;;;10.03;9.10;;;;;;;2.95;64.18;94982.31;1700547;84;20963;-52
2022/04/17 03:50:13;;;;;;;9.60;8.75;;;;;;;2.96;64.40;94979.78;1700755;83;21027;-51
2022/04/17 03:52:43;;;;;;;12.13;10.98;;;;;;;2.97;63.94;94982.69;1704224;84;21029;-50
2022/04/17 03:55:12;;;;;;;12.93;11.55;;;;;;;2.95;64.15;94983.67;1707386;84;21064;-51
2022/04/17 03:57:39;;;;;;;12.65;11.45;;;;;;;2.97;64.28;94984.84;1707752;84;21005;-51
2022/04/17 04:00:08;;;;;;;11.63;10.43;;;;;;;2.98;64.43;94982.88;1707789;84;21034;-50
2022/04/17 04:02:41;;;;;;;10.80;9.80;;;;;;;3.08;64.41;94992.36;1708103;84;21497;-49
2022/04/17 04:05:10;;;;;;;12.13;10.95;;;;;;;3.09;63.18;94996.62;1707900;84;21064;-49
2022/04/17 04:07:38;;;;;;;11.57;10.58;;;;;;;3.04;63.43;94984.80;1707377;84;21273;-51
2022/04/17 04:10:08;;;;;;;12.03;9.73;;;;;;;3.09;63.65;94989.06;1707777;84;20965;-51
2022/04/17 04:12:36;;;;;;;12.53;11.33;;;;;;;3.15;63.76;94987.48;1706753;84;20959;-50
2022/04/17 04:15:06;;;;;;;12.75;10.53;;;;;;;3.21;63.85;94986.69;1684463;84;21031;-51
2022/04/17 04:17:33;;;;;;;10.90;9.90;;;;;;;3.28;63.89;94981.81;1706979;84;21019;-51
2022/04/17 04:20:04;;;;;;;10.63;9.53;;;;;;;3.31;63.65;94972.29;1706008;84;21066;-51
2022/04/17 04:22:31;;;;;;;16.50;12.88;;;;;;;3.36;63.43;94971.08;1706239;83;21030;-49
2022/04/17 04:24:59;;;;;;;10.95;9.85;;;;;;;3.40;63.78;94973.22;1706310;84;21054;-51
2022/04/17 04:30:13;;;;;;;10.45;9.48;;;;;;;3.32;62.40;94975.77;1706370;84;21062;-50
2022/04/17 04:32:41;;;;;;;10.78;9.88;;;;;;;3.19;61.56;94973.29;1683849;84;21355;-53
2022/04/17 04:35:10;;;;;;;15.38;13.78;;;;;;;3.12;61.86;94973.33;1705479;84;21565;-51
2022/04/17 04:37:37;;;;;;;16.30;14.78;;;;;;;3.06;62.53;94972.19;1706318;84;21447;-52
2022/04/17 04:40:06;;;;;;;11.60;10.60;;;;;;;3.09;62.36;94971.41;1706321;84;21526;-50
2022/04/17 04:42:33;;;;;;;9.15;8.35;;;;;;;3.12;61.63;94961.09;1706467;84;21051;-49
2022/04/17 04:47:45;;;;;;;10.60;9.50;;;;;;;3.21;61.61;94963.58;1706341;84;20986;-51
2022/04/17 04:50:12;;;;;;;10.72;9.68;;;;;;;3.30;62.34;94959.08;1706225;84;21062;-51
2022/04/17 04:52:41;;;;;;;9.60;8.70;;;;;;;3.39;62.65;94964.88;1706790;84;21482;-51
2022/04/17 04:55:09;;;;;;;26.40;20.10;;;;;;;3.47;62.36;94963.09;1708095;84;21472;-50
2022/04/17 04:57:37;;;;;;;13.65;12.25;;;;;;;3.54;62.33;94959.72;1707558;84;21339;-51
2022/04/17 05:00:06;;;;;;;10.25;9.28;;;;;;;3.59;61.52;94955.25;1707821;84;21026;-51
2022/04/17 05:02:37;;;;;;;9.40;8.50;;;;;;;3.51;62.15;94978.20;1707869;84;20999;-50
2022/04/17 05:05:07;;;;;;;8.75;7.95;;;;;;;3.44;62.39;94972.62;1681645;84;21059;-51
2022/04/17 05:07:34;;;;;;;8.15;7.42;;;;;;;3.40;62.78;94971.27;1708214;84;21027;-50
2022/04/17 05:10:04;;;;;;;12.35;9.28;;;;;;;3.45;62.67;94982.32;1707764;84;22004;-51
2022/04/17 05:12:31;;;;;;;9.58;8.68;;;;;;;3.48;62.71;94980.35;1707677;84;21058;-51
2022/04/17 05:15:00;;;;;;;9.25;8.40;;;;;;;3.52;62.30;94987.14;1707993;82;20948;-52
2022/04/17 05:17:27;;;;;;;10.08;9.13;;;;;;;3.51;62.07;94986.36;1707863;84;21023;-50
2022/04/17 05:19:55;;;;;;;9.45;8.45;;;;;;;3.53;62.70;94992.17;1707869;84;20959;-52
2022/04/17 05:22:31;;;;;;;8.98;8.13;;;;;;;3.55;62.32;94979.55;1707768;84;21967;-51
2022/04/17 05:24:50;;;;;;;8.30;7.60;;;;;;;3.56;62.03;94981.88;1706287;84;21038;-52
2022/04/17 05:27:17;;;;;;;9.58;8.75;;;;;;;3.56;61.43;94977.80;1708148;84;21459;-51
2022/04/17 05:29:44;;;;;;;9.50;8.60;;;;;;;3.55;61.86;94980.30;1681684;84;21031;-51
2022/04/17 05:32:12;;;;;;;9.58;8.55;;;;;;;3.56;62.09;94979.16;1707848;84;21015;-51
2022/04/17 05:34:40;;;;;;;9.03;8.23;;;;;;;3.56;61.46;94977.80;1707799;84;21098;-52
2022/04/17 05:37:08;;;;;;;8.63;7.85;;;;;;;3.56;61.99;94969.64;1707947;84;21483;-52
2022/04/17 05:39:36;;;;;;;10.45;9.45;;;;;;;3.64;62.52;94973.07;1708196;84;21486;-50
2022/04/17 05:42:03;;;;;;;9.35;8.28;;;;;;;3.65;62.42;94972.69;1707798;84;21018;-54
2022/04/17 05:44:30;;;;;;;17.48;13.13;;;;;;;3.70;61.32;94977.70;1707801;84;21586;-52
2022/04/17 05:46:59;;;;;;;20.30;15.08;;;;;;;3.65;62.03;94967.25;1681605;84;21922;-52
2022/04/17 05:49:25;;;;;;;11.53;10.08;;;;;;;3.58;61.94;94964.58;1682325;84;20983;-51
2022/04/17 05:51:53;;;;;;;10.65;9.55;;;;;;;3.60;62.29;94975.05;1682095;84;21035;-52
2022/04/17 05:54:20;;;;;;;13.15;11.85;;;;;;;3.66;63.09;94967.44;1708016;84;21613;-52
2022/04/17 05:56:47;;;;;;;11.63;9.73;;;;;;;3.71;63.40;94966.25;1681921;84;21028;-51
2022/04/17 05:59:13;;;;;;;12.23;10.93;;;;;;;3.77;63.54;94972.23;1707752;84;21151;-51
2022/04/17 06:01:41;;;;;;;12.13;10.93;;;;;;;3.77;62.85;94972.23;1707923;84;21030;-53
2022/04/17 06:04:08;;;;;;;14.83;11.33;;;;;;;3.79;63.28;94967.17;1681849;84;21101;-51
2022/04/17 06:06:37;;;;;;;11.43;10.23;;;;;;;3.88;63.48;94965.37;1706911;82;21534;-53
2022/04/17 06:09:04;;;;;;;12.50;10.45;;;;;;;3.89;63.21;94969.03;1719638;82;21019;-54
2022/04/17 06:11:31;;;;;;;12.03;10.75;;;;;;;3.87;63.41;94965.94;1709949;82;21259;-52
2022/04/17 06:13:58;;;;;;;9.93;8.95;;;;;;;3.88;63.45;94972.17;1713959;82;20968;-53
2022/04/17 06:16:25;;;;;;;20.15;13.55;;;;;;;3.87;62.50;94974.10;1707594;82;20998;-53
2022/04/17 06:18:51;;;;;;;12.65;11.25;;;;;;;3.80;62.58;94974.16;1708451;84;21064;-52
2022/04/17 06:21:20;;;;;;;12.60;11.30;;;;;;;3.78;63.06;94975.14;1707711;83;21497;-52
2022/04/17 06:23:46;;;;;;;11.68;10.38;;;;;;;3.77;64.26;94971.45;1681701;84;21170;-52
2022/04/17 06:26:15;;;;;;;10.80;9.75;;;;;;;3.76;63.79;94977.49;1707116;84;21059;-51
2022/04/17 06:28:42;;;;;;;11.63;10.40;;;;;;;3.78;64.13;94986.60;1707215;83;21018;-53
2022/04/17 06:31:08;;;;;;;13.00;11.65;;;;;;;3.76;63.92;94972.05;1707435;84;20982;-50
2022/04/17 06:33:37;;;;;;;13.72;12.33;;;;;;;3.79;64.62;94978.05;1707394;84;21571;-51
2022/04/17 06:36:04;;;;;;;12.75;11.00;;;;;;;3.80;64.78;94983.68;1709452;82;21097;-53
2022/04/17 06:38:31;;;;;;;13.10;11.80;;;;;;;3.77;64.36;94978.25;1704999;82;21015;-53
2022/04/17 06:40:57;;;;;;;13.68;11.65;;;;;;;3.73;64.48;94998.67;1709225;84;20974;-54
2022/04/17 06:43:24;;;;;;;12.55;11.25;;;;;;;3.74;64.52;94990.72;1679626;85;21032;-53
2022/04/17 06:45:53;;;;;;;13.32;12.00;;;;;;;3.75;64.98;94992.84;1676765;83;21515;-55
2022/04/17 06:48:21;;;;;;;15.00;12.20;;;;;;;3.79;64.89;94989.51;1693805;84;21177;-52
2022/04/17 06:50:52;;;;;;;13.35;11.38;;;;;;;3.81;64.68;94989.88;1709111;84;21050;-51
2022/04/17 06:53:19;;;;;;;12.82;11.22;;;;;;;3.79;64.46;94988.94;1708998;84;20999;-52
2022/04/17 06:55:47;;;;;;;12.28;10.85;;;;;;;3.84;64.82;94991.23;1707385;84;21438;-54
2022/04/17 06:58:20;;;;;;;12.20;10.48;;;;;;;3.84;64.80;94986.39;1707283;84;20977;-52
2022/04/17 07:00:50;;;;;;;19.15;14.47;;;;;;;3.79;64.73;95007.19;1706115;84;21472;-52
2022/04/17 07:03:17;;;;;;;21.68;17.32;;;;;;;3.71;64.40;95001.02;1706596;84;21430;-53
2022/04/17 07:05:46;;;;;;;13.28;11.97;;;;;;;3.63;63.65;94994.07;1706284;84;20953;-52
2022/04/17 07:08:13;;;;;;;11.43;10.28;;;;;;;3.68;64.37;94999.09;1708496;82;21021;-51
2022/04/17 07:10:42;;;;;;;12.68;10.98;;;;;;;3.78;64.11;94992.83;1722095;82;21074;-51
2022/04/17 07:13:18;;;;;;;13.35;10.75;;;;;;;3.87;63.95;94994.52;1720738;82;21134;-52
2022/04/17 07:15:46;;;;;;;9.45;8.53;;;;;;;3.94;64.44;95002.65;1678827;85;20967;-52
2022/04/17 07:18:15;;;;;;;10.18;9.18;;;;;;;4.00;63.50;94988.80;1689950;82;21062;-52
2022/04/17 07:20:42;;;;;;;11.95;10.70;;;;;;;4.12;63.43;94992.42;1682334;84;21070;-51
2022/04/17 07:23:10;;;;;;;11.88;10.58;;;;;;;4.23;63.32;94997.18;1726434;82;21100;-51
2022/04/17 07:25:37;;;;;;;13.95;11.08;;;;;;;4.27;62.83;94991.12;1715744;82;21310;-54
2022/04/17 07:28:05;;;;;;;11.38;10.18;;;;;;;4.26;63.23;95009.99;1709341;84;21004;-53
2022/04/17 07:30:33;;;;;;;13.22;11.83;;;;;;;4.26;63.46;95012.72;1709326;84;21023;-54
2022/04/17 07:33:02;;;;;;;13.62;11.50;;;;;;;4.22;63.14;95016.05;1708335;84;21571;-53
2022/04/17 07:35:30;;;;;;;13.75;12.28;;;;;;;4.22;63.21;95013.94;1729445;82;21013;-53
2022/04/17 07:38:00;;;;;;;24.57;22.10;;;;;;;4.18;63.68;95017.25;1713474;82;21255;-53
2022/04/17 07:40:31;;;;;;;19.70;15.38;;;;;;;4.11;64.24;95020.81;1709312;84;20985;-53
2022/04/17 07:43:00;;;;;;;20.32;13.98;;;;;;;4.10;64.07;95019.27;1708706;84;21440;-52
2022/04/17 07:45:28;;;;;;;16.85;13.30;;;;;;;4.09;64.92;95035.38;1683791;83;21484;-52
2022/04/17 07:47:55;;;;;;;14.65;12.35;;;;;;;4.00;64.92;95024.18;1709573;82;21431;-51
2022/04/17 07:50:26;;;;;;;13.13;11.10;;;;;;;3.95;65.68;95023.25;1709281;83;21151;-51
2022/04/17 07:52:54;;;;;;;11.75;10.55;;;;;;;4.01;65.76;95028.45;1708196;83;21021;-52
2022/04/17 07:55:22;;;;;;;13.60;10.25;;;;;;;4.03;65.78;95027.46;1708066;83;21580;-51
2022/04/17 08:00:57;;;;;;;62.48;57.73;;;;;;;3.99;65.79;95028.08;1706404;84;21017;-52
2022/04/17 08:06:09;;;;;;;64.35;34.90;;;;;;;4.14;64.28;95029.55;1706499;84;21491;-53
2022/04/17 08:08:39;;;;;;;28.60;20.27;;;;;;;4.18;63.17;95024.05;1706524;84;20966;-53
2022/04/17 08:11:07;;;;;;;14.90;11.45;;;;;;;4.24;62.74;95019.75;1707230;82;21020;-51
2022/04/17 08:13:34;;;;;;;9.43;8.38;;;;;;;4.36;61.95;95022.77;1708730;84;21075;-52
2022/04/17 08:16:08;;;;;;;7.85;6.80;;;;;;;4.45;61.70;95014.90;1709232;82;21007;-53
2022/04/17 08:18:37;;;;;;;7.12;6.42;;;;;;;4.51;61.10;95011.95;1709722;82;21435;-54
2022/04/17 08:21:06;;;;;;;7.70;7.00;;;;;;;4.63;61.03;95010.69;1735669;82;20957;-53
2022/04/17 08:23:37;;;;;;;16.55;8.70;;;;;;;4.64;60.12;95007.55;1716651;83;20976;-55
2022/04/17 08:26:05;;;;;;;9.45;7.65;;;;;;;4.65;60.76;95017.86;1707932;83;21111;-53
2022/04/17 08:28:32;;;;;;;8.45;7.65;;;;;;;4.73;59.80;95024.21;1695609;83;22193;-53
2022/04/17 08:31:00;;;;;;;7.30;6.60;;;;;;;4.70;59.65;95023.66;1710662;82;21046;-53
2022/04/17 08:33:29;;;;;;;10.65;8.63;;;;;;;4.61;59.63;95032.11;1723867;83;21466;-52
2022/04/17 08:35:59;;;;;;;7.05;6.42;;;;;;;4.48;59.28;95031.05;1671017;85;21000;-54
2022/04/17 08:38:25;;;;;;;10.13;8.10;;;;;;;4.36;60.49;95027.42;1707341;82;21007;-53
2022/04/17 08:40:52;;;;;;;7.92;7.20;;;;;;;4.29;61.01;95026.92;1700022;84;21528;-52
2022/04/17 08:43:21;;;;;;;9.05;6.78;;;;;;;4.24;61.61;95025.95;1654101;85;20988;-54
2022/04/17 08:45:51;;;;;;;18.95;13.53;;;;;;;4.20;61.26;95021.12;1709045;83;20988;-52
2022/04/17 08:48:18;;;;;;;17.70;15.90;;;;;;;4.14;61.04;95028.18;1703203;84;20999;-54
2022/04/17 08:50:47;;;;;;;19.82;13.18;;;;;;;4.14;61.27;95016.50;1684249;84;21017;-52
2022/04/17 08:53:16;;;;;;;11.57;9.08;;;;;;;4.14;61.43;95029.55;1723382;83;22100;-55
2022/04/17 08:55:44;;;;;;;7.95;7.00;;;;;;;4.19;62.07;95019.58;1705008;82;21520;-56
2022/04/17 08:58:12;;;;;;;9.00;8.20;;;;;;;4.24;61.96;95026.56;1706806;84;21038;-55
2022/04/17 09:00:41;;;;;;;7.58;6.87;;;;;;;4.18;61.46;95033.58;1649745;85;21074;-54
2022/04/17 09:03:09;;;;;;;6.75;6.15;;;;;;;4.10;62.52;95016.55;1648532;86;21478;-55
2022/04/17 09:05:40;;;;;;;8.65;7.85;;;;;;;4.05;62.24;95023.00;1648294;86;21183;-54
2022/04/17 09:08:21;;;;;;;9.68;8.78;;;;;;;3.94;62.57;95023.63;1648695;86;20963;-55
2022/04/17 09:10:59;;;;;;;10.60;9.50;;;;;;;3.84;62.60;95017.08;1652372;85;21068;-53
2022/04/17 09:13:33;;;;;;;11.22;9.68;;;;;;;3.76;63.23;95018.88;1650864;86;21015;-54
2022/04/17 09:16:04;;;;;;;;;;;;;;;3.79;63.63;95031.11;1653763;85;21056;-54
2022/04/17 09:18:32;;;;;;;10.35;9.45;;;;;;;3.79;63.02;95021.58;1649236;85;20091;-55
2022/04/17 09:21:05;;;;;;;8.60;7.90;;;;;;;3.79;63.21;95021.58;1649412;86;21559;-52
2022/04/17 09:23:36;;;;;;;7.42;6.83;;;;;;;3.79;63.68;95018.08;1659975;84;21064;-54
2022/04/17 09:26:06;;;;;;;7.67;6.97;;;;;;;3.77;64.04;95017.70;1675385;85;20968;-54
2022/04/17 09:28:35;;;;;;;8.00;7.33;;;;;;;3.75;63.95;95023.55;1675217;84;21354;-55
2022/04/17 09:31:13;;;;;;;9.00;7.70;;;;;;;3.75;64.35;95022.20;1676538;84;21164;-53
2022/04/17 09:33:49;;;;;;;9.15;8.35;;;;;;;3.75;64.30;95015.97;1675571;85;21553;-53
2022/04/17 09:36:12;;;;;;;9.73;8.65;;;;;;;3.68;64.80;95009.97;1646855;85;21027;-52
2022/04/17 09:38:39;;;;;;;15.05;10.65;;;;;;;3.72;64.76;95015.41;1630618;85;20992;-54
2022/04/17 09:41:13;;;;;;;20.35;16.27;;;;;;;3.74;65.31;95023.37;1647030;86;21103;-54
2022/04/17 09:43:40;;;;;;;;;;;;;;;3.71;64.90;95018.70;1671548;85;21877;-52
2022/04/17 09:46:08;;;;;;;42.85;32.17;;;;;;;3.69;64.52;95014.84;1638356;86;20463;-53
2022/04/17 09:48:40;;;;;;;14.93;11.05;;;;;;;3.70;64.98;95015.78;1633966;87;21129;-51
2022/04/17 09:51:30;;;;;;;9.43;8.63;;;;;;;3.77;64.21;95011.69;1677473;84;21028;-53
2022/04/17 09:54:05;;;;;;;18.35;12.50;;;;;;;3.79;63.80;95013.42;1683699;83;21014;-53
2022/04/17 09:56:35;;;;;;;16.73;10.38;;;;;;;3.90;65.00;95006.56;1705283;83;21006;-53
2022/04/17 09:59:21;;;;;;;9.33;7.97;;;;;;;4.11;64.34;94997.67;1704192;83;21049;-52
2022/04/17 10:01:52;;;;;;;9.05;8.15;;;;;;;4.30;63.69;94998.52;1705141;84;21017;-50
2022/04/17 10:04:24;;;;;;;18.27;12.50;;;;;;;4.46;61.98;94991.17;1705077;84;21597;-52
2022/04/17 10:06:53;;;;;;;14.73;10.23;;;;;;;4.50;62.63;94981.81;1677465;85;21130;-54
2022/04/17 10:09:21;;;;;;;20.97;14.03;;;;;;;4.57;63.35;94991.27;1677085;85;21075;-54
2022/04/17 10:11:51;;;;;;;14.35;12.85;;;;;;;4.66;63.64;94995.67;1677861;84;20950;-53
2022/04/17 10:14:19;;;;;;;12.85;10.98;;;;;;;4.77;63.31;94998.30;1679880;85;21462;-52
2022/04/17 10:16:48;;;;;;;9.48;8.58;;;;;;;4.85;62.08;94991.02;1706637;84;21489;-53
2022/04/17 10:19:17;;;;;;;15.98;12.37;;;;;;;4.87;62.30;94990.02;1706671;84;21013;-53
2022/04/17 10:21:46;;;;;;;24.70;21.73;;;;;;;4.81;61.52;94994.95;1706580;84;21430;-52
2022/04/17 10:24:16;;;;;;;16.87;15.08;;;;;;;4.73;61.21;95001.05;1706594;84;21461;-58
2022/04/17 10:26:51;;;;;;;12.60;11.35;;;;;;;4.65;61.28;95002.30;1706568;84;20996;-53
2022/04/17 10:29:32;;;;;;;20.08;12.50;;;;;;;4.63;62.09;94991.61;1707066;83;21457;-53
2022/04/17 10:32:35;;;;;;;14.07;10.70;;;;;;;4.55;61.13;94988.75;1706837;84;21532;-51
2022/04/17 10:35:28;;;;;;;12.13;11.00;;;;;;;4.47;61.14;94986.70;1706721;84;21049;-52
2022/04/17 10:38:39;;;;;;;13.08;11.35;;;;;;;4.50;61.90;94983.17;1705909;84;21013;-53
2022/04/17 10:41:10;;;;;;;13.62;9.85;;;;;;;4.53;61.95;94981.57;1706691;84;21001;-54
2022/04/17 10:43:53;;;;;;;14.87;12.47;;;;;;;4.73;61.93;94978.46;1684795;84;21068;-52
2022/04/17 10:46:21;;;;;;;25.10;19.40;;;;;;;4.87;62.68;94968.22;1706982;84;20997;-53
2022/04/17 10:48:52;;;;;;;13.83;11.78;;;;;;;4.96;62.39;94974.55;1706123;84;21192;-52
2022/04/17 10:51:26;;;;;;;14.07;12.03;;;;;;;5.05;61.30;94974.26;1706942;84;21441;-53
2022/04/17 10:54:07;;;;;;;11.30;10.10;;;;;;;5.17;61.27;94975.08;1706249;83;21017;-51
2022/04/17 10:56:38;;;;;;;11.88;10.65;;;;;;;5.32;61.16;94973.16;1706815;83;21021;-52
2022/04/17 10:59:19;;;;;;;9.60;8.68;;;;;;;5.60;61.04;94967.95;1706862;84;21016;-54
2022/04/17 11:02:04;;;;;;;11.25;10.15;;;;;;;5.84;59.02;94968.23;1706685;84;21893;-51
2022/04/17 11:04:54;;;;;;;13.55;10.03;;;;;;;5.89;58.98;94962.30;1706796;84;20986;-54
2022/04/17 11:07:30;;;;;;;12.40;9.73;;;;;;;5.90;59.91;94961.90;1706831;84;20997;-55
2022/04/17 11:10:20;;;;;;;11.60;10.40;;;;;;;5.80;58.90;94948.41;1707012;84;20993;-53
2022/04/17 11:12:56;;;;;;;9.40;8.18;;;;;;;5.79;59.03;94957.77;1687405;84;21098;-53
2022/04/17 11:15:27;;;;;;;9.33;8.10;;;;;;;5.84;59.15;94945.02;1705754;84;21800;-53
2022/04/17 11:17:57;;;;;;;8.28;7.47;;;;;;;5.76;59.57;94952.50;1705862;82;21017;-53
2022/04/17 11:20:26;;;;;;;8.93;8.08;;;;;;;5.75;59.62;94948.84;1691451;84;21050;-54
2022/04/17 11:22:54;;;;;;;9.10;8.30;;;;;;;5.71;59.39;94937.17;1691373;84;21035;-54
2022/04/17 11:25:21;;;;;;;14.15;9.93;;;;;;;5.60;59.74;94939.30;1681719;84;21157;-54
2022/04/17 11:27:51;;;;;;;9.25;8.15;;;;;;;5.60;59.71;94944.75;1682231;84;20995;-53
2022/04/17 11:30:24;;;;;;;7.47;6.87;;;;;;;5.64;59.66;94941.38;1708016;84;21468;-54
2022/04/17 11:32:54;;;;;;;7.45;6.47;;;;;;;5.73;59.42;94939.69;1708181;84;21022;-53
2022/04/17 11:35:25;;;;;;;7.45;6.72;;;;;;;5.82;58.25;94934.50;1707860;84;21019;-52
2022/04/17 11:37:57;;;;;;;5.53;5.12;;;;;;;5.99;57.74;94938.17;1707748;84;21538;-59
2022/04/17 11:40:29;;;;;;;7.47;6.67;;;;;;;6.09;55.96;94929.82;1707725;84;20963;-52
2022/04/17 11:42:57;;;;;;;6.03;5.53;;;;;;;6.09;56.47;94931.77;1708120;84;20992;-53
2022/04/17 11:45:28;;;;;;;6.45;5.83;;;;;;;6.10;54.30;94929.21;1707946;84;20999;-51
2022/04/17 11:47:57;;;;;;;16.75;10.30;;;;;;;6.05;55.04;94924.22;1708310;84;20995;-54
2022/04/17 11:50:27;;;;;;;6.78;5.92;;;;;;;6.14;54.73;94930.70;1707854;84;20967;-52
2022/04/17 11:53:05;;;;;;;5.70;5.20;;;;;;;6.29;53.63;94927.94;1682124;84;21259;-53
2022/04/17 11:55:37;;;;;;;6.33;5.75;;;;;;;6.37;53.66;94924.50;1706547;83;21015;-52
2022/04/17 11:58:11;;;;;;;6.40;5.50;;;;;;;6.63;52.52;94912.13;1707930;84;21494;-53
2022/04/17 12:00:39;;;;;;;8.15;7.05;;;;;;;6.69;54.07;94907.72;1705706;84;21578;-53
2022/04/17 12:03:07;;;;;;;6.78;6.17;;;;;;;6.71;54.81;94916.27;1707877;84;20980;-51
2022/04/17 12:05:36;;;;;;;6.78;5.80;;;;;;;6.86;55.27;94918.17;1682082;84;21270;-54